DIAP/ABJ METAR and TAF weather

Enter ICAO airport designator
Station Type Date Time Source
DIAP METAR 2020/08/14 03:00 UTC NOAA

DIAP 140300Z 25004KT 8000 FEW011 23/23 Q1012 NOSIG


Station Type Date Time Source
DIAP Decoded METAR 2020/08/14 03:00 UTC NOAA

Abidjan, Cote d'Ivoire (DIAP) 05-15N 003-56W 8M
Aug 13, 2020 - 11:00 PM EDT / 2020.08.14 0300 UTC
Wind: from the WSW (250 degrees) at 5 MPH (4 KT):0
Visibility: 4 mile(s):0
Sky conditions: mostly clear
Temperature: 73 F (23 C)
Dew Point: 73 F (23 C)
Relative Humidity: 100%
Pressure (altimeter): 29.88 in. Hg (1012 hPa)
ob: DIAP 140300Z 25004KT 8000 FEW011 23/23 Q1012 NOSIG
cycle: 3

Station Type Date Time Source
DIAP TAF 2020/08/13 18:48 UTC NOAA

TAF TAF DIAP 131700Z 1318/1424 24008KT 9999 SCT012 PROB30
TEMPO 1405/1408 4000 BR
TEMPO 1416/1422 BKN012

Example: see airport list